This is the latest recevied weather packets stored in our database for station/object N9XRG. If no packets are shown the sender has not sent any weather packets the latest 10 day(s).
| Time | Temp. | Humidity | Pressure | Rain* | Wind** | Luminosity | Snow |
|---|---|---|---|---|---|---|---|
| 1777735803 | 8.89° C | 51% | 1019.5 hPa | 0 mm | - | 386 W/m² | - |
| 1777735501 | 8.89° C | 48% | 1019.3 hPa | 0 mm | - | 583 W/m² | - |
| 1777735198 | 9.44° C | 48% | 1019.3 hPa | 0 mm | - | 928 W/m² | - |
| 1777734895 | 8.89° C | 53% | 1019.3 hPa | 0 mm | - | 902 W/m² | - |
| 1777734593 | 8.33° C | 50% | 1019.2 hPa | 0 mm | - | 178 W/m² | - |
| 1777734290 | 10° C | 52% | 1019.4 hPa | 0 mm | - | 811 W/m² | - |
| 1777733985 | 10° C | 51% | 1019.1 hPa | 0 mm | - | 807 W/m² | - |
| 1777733682 | 9.44° C | 48% | 1019.2 hPa | 0 mm | - | 738 W/m² | - |
| 1777733379 | 10° C | 49% | 1019.2 hPa | 0 mm | - | 723 W/m² | - |
| 1777733076 | 8.89° C | 53% | 1019.2 hPa | 0 mm | - | 701 W/m² | - |
| 1777732772 | 8.89° C | 53% | 1019.2 hPa | 0 mm | - | 683 W/m² | - |
| 1777732469 | 8.33° C | 51% | 1019.2 hPa | 0 mm | - | 672 W/m² | - |
| 1777732166 | 8.33° C | 53% | 1019.3 hPa | 0 mm | - | 658 W/m² | - |
| 1777731863 | 8.89° C | 51% | 1019.5 hPa | 0 mm | - | 641 W/m² | - |
| 1777731560 | 8.89° C | 50% | 1019.2 hPa | 0 mm | - | 625 W/m² | - |
| 1777731258 | 8.33° C | 55% | 1019 hPa | 0 mm | - | 606 W/m² | - |
| 1777730955 | 7.78° C | 54% | 1019.3 hPa | 0 mm | - | 586 W/m² | - |
| 1777730654 | 7.78° C | 53% | 1019.1 hPa | 0 mm | - | 567 W/m² | - |
| 1777730349 | 7.78° C | 53% | 1019.3 hPa | 0 mm | - | 546 W/m² | - |
| 1777730046 | 7.22° C | 54% | 1019.2 hPa | 0 mm | - | 524 W/m² | - |
| 1777729742 | 7.22° C | 54% | 1019.2 hPa | 0 mm | - | 504 W/m² | - |
| 1777729439 | 7.22° C | 52% | 1019 hPa | 0 mm | - | 488 W/m² | - |
| 1777729135 | 7.78° C | 53% | 1019 hPa | 0 mm | - | 468 W/m² | - |
| 1777728832 | 7.78° C | 54% | 1019 hPa | 0 mm | - | 447 W/m² | - |
| 1777728529 | 7.22° C | 55% | 1019.3 hPa | 0 mm | - | 425 W/m² | - |
* Rain latest hour (hover to see other rain measurements)
** Current wind speed in m/s (hover to see current wind gust speed)